Country
Station

 

Weather  for  Halmstad Swedish Air Force Base  -  Sweden    Sweden

  
13 °C (55 °F)
    
 
 

Current METAR for Halmstad Swedish Air Force Base is :

ESMT 180950Z 32012KT CAVOK 13/05 Q1016

 

This is a report for Halmstad Swedish Air Force Base - Sweden.
 
The report was made 25 minutes ago, at 09:50 UTC .
The wind was blowing at a speed of 6.2 meters per second (13.8 miles per hour) from northwest (320°).
 
The temperature was 13 °C (55 °F), with a dew-point at 5 °C (41 °F).
The atmospheric pressure was 1016 hPa (30.00 inHg).
The relative humidity was 58.2%.
 
There were no clouds below 1500 meter (5000 feet) and no cumulonimbus clouds.
 
The overall visibility was greater than 10 kilometers (6.2 miles).
 

 
 
 
 

Country :   A   B   C   D   E   F   G   H   I   J   K   L   M   N   O   P   Q   R   S   T   U   V   W   Y   Z

 

Site Info  |  Disclaimer  |  Credits  |  Privacy
Contact us  |  Add to favorites
© 2013-2019 METARs - All rights reserved